Aberdeen, WA

8:46 AM PDT on May 24, 2017 (GMT -0700)
Think of Me Hill | | Change Station

Elev 72 ft 46.98 °N, 123.80 °W | Updated 5 minutes ago

Overcast
Overcast
52.4 °F
Feels Like 52.4 °F
N
4.0
Wind Variable Wind from NNE
Gusts 4.0 mph

Today
High -- | Low -- °F
--% Chance of Precip.
Yesterday
High -- | Low -- °F
Precip. -- in
Pressure 30.11 in
Visibility 7.0 miles
Clouds Few 1700 ft
Few 2500 ft
Overcast 4900 ft
Dew Point 48 °F
Humidity 84%
Rainfall 0.00 in
Snow Depth Not available.
5:30 AM 8:54 PM
Waning Crescent, 2% visible
METAR KHQM 241453Z AUTO 28010G15KT 7SM FEW017 FEW025 OVC049 11/08 A3010 RMK AO2 RAB20E31 SLP196 P0000 60000 T01110083 57002
Pressure 30.11 in
Visibility 7.0 miles
Clouds Few 1700 ft
Few 2500 ft
Overcast 4900 ft
Dew Point 48 °F
Humidity 84%
Rainfall 0.00 in
Snow Depth Not available.
5:30 AM 8:54 PM
Waning Crescent, 2% visible
METAR KHQM 241453Z AUTO 28010G15KT 7SM FEW017 FEW025 OVC049 11/08 A3010 RMK AO2 RAB20E31 SLP196 P0000 60000 T01110083 57002

Get Severe Weather Alerts

Thanks for signing up!

Be on the lookout for a verification email in your inbox.

You'll start receiving the daily forecast at 6 AM.

×

10-Day Weather Forecast

Almanac

Astronomy

May. 24, 2017 Rise Set
Actual Time
Civil Twilight
Nautical Twilight
Astronomical Twilight
Moon
Length of Visible Light
Length of Day
Tomorrow will be .
, % of the Moon is Illuminated

Today's Extremes

State Highs State Lows

Community

WunderPhotos

Category 6

Welcome to Category 6. This is the collective home for Weather Underground's featured writeups by Dr. Jeff Masters (right), Bob Henson (left), Chris Burt, and other regular contributors.

Nearby

Air Quality

  Air Quality AQ Index Pollutant
Not available.

Snow Depth

Station Depth Elevation

Earthquake Activity

City Distance Mag. Time & Date
Minimum magnitude displayed is 2.5.

Coastal Water Temperatures

Place Temperature

Stations

Nearby Weather Stations

Station Location Temp. Windchill Dew Point Humidity Wind Precip. Elev Updated Type
                   

Watches & Warnings

There are currently no watches in effect.